Terminal Aerodrome Forecast
Issued by NWS

Home | Current Version | Previous Version | Text Only | Print | Product List | Glossary Off
Versions: 1 2 3 4 5 6 7 8 9 10 11 12 13 14 15 16 17 18

000
FTUS43 KBIS 250700 AAA
TAFMOT
TAF AMD
KMOT 250725Z 2507/2606 31015KT 6SM -SHRA BR OVC008
     FM251300 29015KT P6SM SCT006 OVC015
     FM252200 29014KT P6SM SCT015 BKN035
     FM260000 29007KT P6SM SCT040 SCT120=

USA.gov is the U.S. government's official web portal to all federal, state and local government web resources and services.